Flight Track Log - Related Links

Times and Time Zones

All times are in EDT time to prevent confusion due to time zone crossing. See the SKW6335 flight status page for this flight to view local times or setup timezone preferences in your user account.


Time Position Orientation Groundspeed Altitude Reporting Facility
EDT Latitude Longitude Course Direction KTS MPH feet Rate Location/Type
Tue 07:06:32 PM 32.7667 -117.2833 292° West 193 222 3,100  Level Southern California TRACON
Tue 07:07:19 PM 32.7931 -117.3183 312° West 194 223 3,900 1,376 Climbing Los Angeles Center
Tue 07:08:00 PM 32.8912 -117.3412 320° Northwest  Level FlightAware Approximate
Tue 07:08:21 PM 32.8325 -117.3708 312° West 209 241 5,600  Level Los Angeles Center
Tue 07:09:00 PM 32.9442 -117.3941 320° Northwest  Level FlightAware Approximate
Tue 07:09:23 PM 32.8789 -117.4331 312° West 210 242 7,300  Level Los Angeles Center
Tue 07:10:00 PM 32.9972 -117.4470 320° Northwest  Level FlightAware Approximate
Tue 07:10:25 PM 32.9192 -117.4872 312° West 215 247 8,000  Level Los Angeles Center
Tue 07:11:27 PM 32.9667 -117.5481 313° West 242 278 8,000  Level Los Angeles Center
Tue 07:12:29 PM 33.0125 -117.6111 311° West 251 289 8,000  Level Los Angeles Center
Tue 07:13:31 PM 33.0589 -117.6722 312° West 248 285 8,000  Level Los Angeles Center
Tue 07:14:33 PM 33.1058 -117.7342 312° West 251 289 8,000  Level Los Angeles Center
Tue 07:15:35 PM 33.1686 -117.7986 319° Northwest 252 290 8,000  Level Los Angeles Center
Tue 07:16:37 PM 33.2336 -117.8267 340° North 251 289 8,000  Level Los Angeles Center
Tue 07:17:40 PM 33.2994 -117.8533 341° North 251 289 8,000  Level Los Angeles Center
Tue 07:18:54 PM 33.3664 -117.8808 341° North 253 291 8,000  Level Los Angeles Center
Tue 07:19:56 PM 33.4450 -117.9117 342° North 250 288 8,000  Level Los Angeles Center
Tue 07:20:58 PM 33.5242 -117.9436 341° North 251 289 8,000 -48 Level Los Angeles Center
Tue 07:22:00 PM 33.5894 -117.9706 341° North 249 287 7,900  Descending Los Angeles Center
Tue 07:22:41 PM 33.6333 -118.0000 331° Northwest 248 285 8,000 -356 Climbing Southern California TRACON
Tue 07:23:41 PM 33.7000 -118.0167 348° North 266 306 7,300 -500 Descending Southern California TRACON
Tue 07:24:41 PM 33.7667 -118.0500 337° Northwest 278 320 7,000 -150 Descending Southern California TRACON
Tue 07:25:41 PM 33.8333 -118.0667 348° North 246 283 7,000  Level Southern California TRACON
Tue 07:26:41 PM 33.9000 -118.0833 348° North 239 275 7,000 -400 Level Southern California TRACON
Tue 07:27:41 PM 33.9667 -118.1000 348° North 205 236 6,200 -717 Descending Southern California TRACON
Tue 07:28:13 PM 33.9628 -118.1253 259° West 206 237 5,900 -894 Descending Los Angeles Center
Tue 07:29:15 PM 33.9564 -118.1867 263° West 188 216 4,800 -1,113 Descending Los Angeles Center
Tue 07:30:17 PM 33.9508 -118.2453 263° West 181 208 3,600 -1,161 Descending Los Angeles Center

Login

Don't have an account? Register now (free) for customized features, flight alerts, and more!